createdAt,value
2019-05-11T00:00:01.581Z,9.62
2019-05-11T00:05:01.741Z,9.35
2019-05-11T00:10:01.830Z,9.53
2019-05-11T00:15:01.920Z,9.27
2019-05-11T00:20:02.461Z,9.49
2019-05-11T00:25:01.958Z,9.32
2019-05-11T00:30:02.080Z,9.33
2019-05-11T00:35:01.208Z,9.36
2019-05-11T00:40:14.018Z,9.32
2019-05-11T00:45:01.837Z,9.32
2019-05-11T00:50:01.983Z,9.41
2019-05-11T00:55:01.261Z,9.41
2019-05-11T01:00:01.422Z,9.44
2019-05-11T01:05:01.601Z,9.47
2019-05-11T01:10:01.796Z,9.49
2019-05-11T01:15:01.921Z,9.34
2019-05-11T01:20:02.130Z,9.31
2019-05-11T01:25:01.970Z,9.36
2019-05-11T01:30:02.172Z,9.34
2019-05-11T01:35:01.384Z,9.32
2019-05-11T01:40:01.536Z,9.32
2019-05-11T01:45:01.671Z,9.29
2019-05-11T01:50:01.762Z,9.18
2019-05-11T01:55:01.898Z,9.15
2019-05-11T02:00:02.102Z,9.2
2019-05-11T02:05:01.253Z,9.46
2019-05-11T02:10:01.356Z,9.33
2019-05-11T02:15:01.496Z,9.32
2019-05-11T02:20:01.715Z,9.36
2019-05-11T02:25:01.825Z,9.17
2019-05-11T02:30:02.015Z,9.14
2019-05-11T02:35:01.158Z,9.14
2019-05-11T02:40:01.991Z,9.18
2019-05-11T02:45:01.094Z,9.2
2019-05-11T02:50:01.237Z,9.21
2019-05-11T02:55:01.352Z,9.2
2019-05-11T03:00:01.531Z,9.19
2019-05-11T03:05:01.674Z,9.15
2019-05-11T03:10:01.832Z,9.19
2019-05-11T03:15:02.035Z,9.19
2019-05-11T03:20:01.212Z,9.19
2019-05-11T03:25:01.326Z,9.18
2019-05-11T03:30:02.244Z,9.09
2019-05-11T03:35:01.728Z,9.08
2019-05-11T03:40:01.934Z,9
2019-05-11T03:45:02.080Z,9.03
2019-05-11T03:50:01.218Z,8.93
2019-05-11T03:55:01.363Z,8.86
2019-05-11T04:00:01.557Z,8.77
2019-05-11T04:05:01.752Z,8.8
2019-05-11T04:10:01.890Z,8.74
2019-05-11T04:15:02.023Z,8.8
2019-05-11T04:20:01.160Z,8.68
2019-05-11T04:25:01.298Z,8.75
2019-05-11T04:30:01.464Z,8.73
2019-05-11T04:35:01.766Z,8.68
2019-05-11T04:40:02.154Z,8.73
2019-05-11T04:45:01.313Z,8.72
2019-05-11T04:50:01.451Z,8.68
2019-05-11T04:55:01.366Z,8.61
2019-05-11T05:00:01.553Z,8.55
2019-05-11T05:05:01.700Z,8.49
2019-05-11T05:10:01.838Z,8.57
2019-05-11T05:15:01.979Z,8.63
2019-05-11T05:20:01.220Z,8.49
2019-05-11T05:25:01.408Z,8.53
2019-05-11T05:30:01.625Z,8.59
2019-05-11T05:35:01.813Z,8.56
2019-05-11T05:40:01.985Z,8.56
2019-05-11T05:45:01.117Z,8.44
2019-05-11T05:50:01.254Z,8.58
2019-05-11T05:55:01.393Z,8.59
2019-05-11T06:00:01.560Z,8.58
2019-05-11T06:05:01.714Z,8.57
2019-05-11T06:10:01.861Z,8.56
2019-05-11T06:15:02.007Z,8.55
2019-05-11T06:20:01.301Z,8.51
2019-05-11T06:25:01.634Z,8.55
2019-05-11T06:30:01.751Z,8.61
2019-05-11T06:35:01.969Z,8.68
2019-05-11T06:40:01.212Z,8.77
2019-05-11T06:45:01.302Z,8.83
2019-05-11T06:50:01.449Z,8.73
2019-05-11T06:55:01.664Z,8.79
2019-05-11T07:00:01.833Z,8.78
2019-05-11T07:05:01.955Z,8.73
2019-05-11T07:10:02.092Z,8.74
2019-05-11T07:15:01.247Z,8.62
2019-05-11T07:20:01.501Z,8.71
2019-05-11T07:25:01.615Z,8.68
2019-05-11T07:30:01.768Z,8.77
2019-05-11T07:35:01.954Z,8.77
2019-05-11T07:40:02.144Z,8.79
2019-05-11T07:45:01.277Z,8.92
2019-05-11T07:50:01.425Z,8.94
2019-05-11T07:55:01.568Z,9
2019-05-11T08:00:01.700Z,9.08
2019-05-11T08:05:01.963Z,9.06
2019-05-11T08:10:01.119Z,9.07
2019-05-11T08:15:09.041Z,9.03
2019-05-11T08:20:01.937Z,8.9
2019-05-11T08:25:02.039Z,8.92
2019-05-11T08:30:01.167Z,9
2019-05-11T08:35:01.323Z,8.93
2019-05-11T08:40:01.487Z,8.95
2019-05-11T08:45:15.989Z,8.82
2019-05-11T08:50:01.832Z,8.95
2019-05-11T08:55:01.969Z,8.96
2019-05-11T09:00:02.132Z,8.91
2019-05-11T09:05:01.306Z,8.73
2019-05-11T09:10:01.444Z,8.83
2019-05-11T09:15:01.582Z,8.76
2019-05-11T09:20:01.721Z,8.81
2019-05-11T09:25:01.858Z,8.79
2019-05-11T09:30:01.961Z,8.93
2019-05-11T09:35:02.121Z,9.06
2019-05-11T09:40:01.212Z,8.92
2019-05-11T09:45:01.352Z,9.05
2019-05-11T09:50:01.491Z,9.14
2019-05-11T09:55:01.647Z,9.26
2019-05-11T10:00:01.887Z,9.06
2019-05-11T10:05:02.007Z,9.3
2019-05-11T10:10:01.096Z,9.32
2019-05-11T10:15:01.286Z,9.08
2019-05-11T10:20:01.430Z,9.27
2019-05-11T10:25:01.535Z,9.16
2019-05-11T10:30:01.671Z,9.14
2019-05-11T10:35:01.930Z,9.16
2019-05-11T10:40:02.083Z,9.06
2019-05-11T10:45:01.224Z,9.21
2019-05-11T10:50:01.335Z,9.08
2019-05-11T10:55:01.576Z,9.32
2019-05-11T11:00:01.728Z,9.33
2019-05-11T11:05:01.841Z,9.27
2019-05-11T11:10:01.966Z,9.34
2019-05-11T11:15:02.153Z,9.37
2019-05-11T11:20:01.292Z,9.59
2019-05-11T11:25:01.429Z,9.68
2019-05-11T11:30:01.527Z,9.7
2019-05-11T11:35:01.829Z,9.74
2019-05-11T11:40:02.003Z,9.81
2019-05-11T11:45:01.139Z,9.84
2019-05-11T11:50:01.276Z,10.01
2019-05-11T11:55:01.431Z,10.08
2019-05-11T12:00:01.566Z,10.04
2019-05-11T12:05:01.686Z,9.86
2019-05-11T12:10:01.823Z,9.96
2019-05-11T12:15:01.986Z,9.94
2019-05-11T12:20:01.128Z,10.21
2019-05-11T12:25:01.276Z,10.31
2019-05-11T12:30:01.414Z,10.42
2019-05-11T12:35:01.629Z,10.63
2019-05-11T12:40:01.773Z,10.85
2019-05-11T12:45:01.910Z,11.03
2019-05-11T12:50:02.045Z,11.12
2019-05-11T12:55:01.202Z,11.56
2019-05-11T13:00:01.343Z,11.88
2019-05-11T13:05:01.506Z,11.78
2019-05-11T13:10:01.643Z,11.78
2019-05-11T13:15:01.836Z,11.99
2019-05-11T13:20:02.042Z,12.07
2019-05-11T13:25:01.181Z,11.88
2019-05-11T13:30:01.373Z,11.77
2019-05-11T13:35:01.600Z,11.97
2019-05-11T13:40:01.756Z,12.38
2019-05-11T13:45:01.900Z,12.73
2019-05-11T13:50:02.058Z,12.61
2019-05-11T13:55:01.998Z,12.72
2019-05-11T14:00:01.135Z,12.84
2019-05-11T14:05:01.265Z,12.66
2019-05-11T14:10:01.409Z,12.64
2019-05-11T14:15:01.601Z,12.61
2019-05-11T14:20:01.814Z,12.49
2019-05-11T14:25:01.919Z,12.55
2019-05-11T14:30:04.048Z,12.91
2019-05-11T14:35:01.422Z,12.78
2019-05-11T14:40:01.552Z,12.7
2019-05-11T14:45:01.704Z,12.73
2019-05-11T14:50:01.872Z,12.67
2019-05-11T14:55:02.017Z,12.49
2019-05-11T15:00:01.136Z,12.5
2019-05-11T15:05:01.300Z,12.87
2019-05-11T15:10:01.471Z,13.02
2019-05-11T15:15:01.613Z,13.18
2019-05-11T15:20:01.764Z,13.37
2019-05-11T15:25:01.856Z,13.46
2019-05-11T15:30:02.059Z,13.4
2019-05-11T15:35:01.226Z,13.58
2019-05-11T15:40:01.340Z,13.35
2019-05-11T15:45:01.482Z,13.3
2019-05-11T15:50:01.681Z,13.04
2019-05-11T15:55:01.819Z,12.82
2019-05-11T16:00:01.957Z,12.76
2019-05-11T16:05:02.106Z,12.74
2019-05-11T16:10:01.255Z,12.78
2019-05-11T16:15:01.412Z,13.26
2019-05-11T16:20:01.546Z,13.16
2019-05-11T16:25:01.671Z,13.03
2019-05-11T16:30:01.806Z,12.88
2019-05-11T16:35:02.016Z,12.77
2019-05-11T16:40:01.153Z,12.71
2019-05-11T16:45:01.344Z,12.63
2019-05-11T16:50:01.524Z,12.56
2019-05-11T16:55:01.625Z,12.47
2019-05-11T17:00:01.719Z,12.45
2019-05-11T17:05:01.852Z,12.51
2019-05-11T17:10:01.992Z,12.51
2019-05-11T17:15:01.134Z,12.26
2019-05-11T17:20:01.267Z,12.15
2019-05-11T17:25:01.490Z,12.18
2019-05-11T17:30:01.621Z,12.4
2019-05-11T17:35:01.780Z,12.38
2019-05-11T17:40:01.894Z,12.38
2019-05-11T17:45:02.094Z,12.32
2019-05-11T17:50:03.899Z,12.27
2019-05-11T17:55:01.264Z,12.19
2019-05-11T18:00:02.324Z,12.27
2019-05-11T18:05:01.590Z,12.3
2019-05-11T18:10:01.730Z,12.28
2019-05-11T18:15:01.865Z,12.06
2019-05-11T18:20:13.649Z,11.88
2019-05-11T18:25:01.615Z,11.75
2019-05-11T18:30:01.752Z,11.52
2019-05-11T18:35:01.914Z,11.44
2019-05-11T18:40:02.050Z,11.4
2019-05-11T18:45:01.255Z,11.27
2019-05-11T18:50:01.363Z,11.13
2019-05-11T18:55:01.495Z,11.2
2019-05-11T19:00:01.634Z,11.3
2019-05-11T19:05:01.783Z,11.25
2019-05-11T19:10:01.920Z,11.08
2019-05-11T19:15:02.058Z,10.92
2019-05-11T19:20:01.194Z,10.79
2019-05-11T19:25:01.366Z,10.7
2019-05-11T19:30:01.500Z,10.62
2019-05-11T19:35:01.662Z,10.48
2019-05-11T19:40:01.860Z,10.31
2019-05-11T19:45:02.064Z,10.15
2019-05-11T19:50:01.205Z,9.94
2019-05-11T19:55:01.328Z,9.84
2019-05-11T20:00:01.451Z,9.5
2019-05-11T20:05:01.635Z,9.34
2019-05-11T20:10:01.768Z,9.21
2019-05-11T20:15:01.143Z,9.03
2019-05-11T20:20:01.344Z,8.93
2019-05-11T20:25:01.479Z,8.82
2019-05-11T20:30:01.607Z,8.65
2019-05-11T20:35:01.766Z,8.49
2019-05-11T20:40:01.903Z,8.37
2019-05-11T20:45:02.233Z,8.21
2019-05-11T20:50:01.428Z,8.11
2019-05-11T20:55:01.564Z,8
2019-05-11T21:00:01.706Z,7.87
2019-05-11T21:05:01.883Z,7.77
2019-05-11T21:10:02.016Z,7.64
2019-05-11T21:15:01.149Z,7.49
2019-05-11T21:20:01.287Z,7.39
2019-05-11T21:25:01.448Z,7.31
2019-05-11T21:30:01.588Z,7.24
2019-05-11T21:35:01.744Z,7.14
2019-05-11T21:40:01.882Z,7.02
2019-05-11T21:45:02.049Z,6.94
2019-05-11T21:50:01.183Z,6.97
2019-05-11T21:55:01.317Z,8.05
2019-05-11T22:00:01.465Z,8.51
2019-05-11T22:05:03.270Z,8.17
2019-05-11T22:10:01.527Z,7.83
2019-05-11T22:15:01.661Z,7.63
2019-05-11T22:20:01.768Z,7.45
2019-05-11T22:25:01.955Z,7.72
2019-05-11T22:30:02.085Z,7.42
2019-05-11T22:35:01.234Z,7.49
2019-05-11T22:40:01.376Z,8.14
2019-05-11T22:45:01.577Z,7.93
2019-05-11T22:50:01.706Z,7.96
2019-05-11T22:55:01.841Z,7.93
2019-05-11T23:00:01.977Z,8.04
2019-05-11T23:05:01.187Z,7.9
2019-05-11T23:10:01.359Z,7.9
2019-05-11T23:15:01.478Z,7.88
2019-05-11T23:20:01.615Z,7.77
2019-05-11T23:25:01.774Z,7.82
2019-05-11T23:30:01.868Z,7.69
2019-05-11T23:35:02.053Z,7.47
2019-05-11T23:40:01.202Z,7.11
2019-05-11T23:45:01.362Z,6.82
2019-05-11T23:50:01.501Z,6.68
2019-05-11T23:55:01.661Z,6.69
